sensor_id;sensor_type;location;lat;lon;timestamp;P1;durP1;ratioP1;P2;durP2;ratioP2
41229;SDS011;26964;50.428;19.218;2024-01-06T00:00:15;102.2;;;45.5;;
41229;SDS011;26964;50.428;19.218;2024-01-06T00:01:16;98.3;;;45.4;;
41229;SDS011;26964;50.428;19.218;2024-01-06T00:02:15;118.6;;;45.5;;
41229;SDS011;26964;50.428;19.218;2024-01-06T00:03:15;128.2;;;47.7;;
41229;SDS011;26964;50.428;19.218;2024-01-06T00:04:15;128.7;;;46.6;;
41229;SDS011;26964;50.428;19.218;2024-01-06T00:05:15;127.0;;;46.0;;
41229;SDS011;26964;50.428;19.218;2024-01-06T00:06:15;114.1;;;46.5;;
41229;SDS011;26964;50.428;19.218;2024-01-06T00:07:15;120.1;;;44.9;;
41229;SDS011;26964;50.428;19.218;2024-01-06T00:08:16;111.3;;;46.6;;
41229;SDS011;26964;50.428;19.218;2024-01-06T00:09:15;122.1;;;46.1;;
41229;SDS011;26964;50.428;19.218;2024-01-06T00:10:15;122.7;;;47.2;;
41229;SDS011;26964;50.428;19.218;2024-01-06T00:11:15;94.9;;;45.4;;
41229;SDS011;26964;50.428;19.218;2024-01-06T00:12:15;103.2;;;46.9;;
41229;SDS011;26964;50.428;19.218;2024-01-06T00:13:15;104.2;;;50.2;;
41229;SDS011;26964;50.428;19.218;2024-01-06T00:14:15;129.8;;;54.1;;
41229;SDS011;26964;50.428;19.218;2024-01-06T00:15:15;118.5;;;50.5;;
41229;SDS011;26964;50.428;19.218;2024-01-06T00:16:16;100.1;;;48.5;;
41229;SDS011;26964;50.428;19.218;2024-01-06T00:17:15;96.4;;;48.5;;
41229;SDS011;26964;50.428;19.218;2024-01-06T00:18:16;101.6;;;49.0;;
41229;SDS011;26964;50.428;19.218;2024-01-06T00:19:15;113.5;;;51.1;;
41229;SDS011;26964;50.428;19.218;2024-01-06T00:20:15;117.8;;;55.7;;
41229;SDS011;26964;50.428;19.218;2024-01-06T00:21:15;99.9;;;47.8;;
41229;SDS011;26964;50.428;19.218;2024-01-06T00:22:15;102.4;;;45.6;;
41229;SDS011;26964;50.428;19.218;2024-01-06T00:23:15;100.5;;;47.8;;
41229;SDS011;26964;50.428;19.218;2024-01-06T00:24:15;86.0;;;44.1;;
41229;SDS011;26964;50.428;19.218;2024-01-06T00:25:15;90.4;;;47.5;;
41229;SDS011;26964;50.428;19.218;2024-01-06T00:26:15;95.6;;;47.3;;
41229;SDS011;26964;50.428;19.218;2024-01-06T00:27:16;89.0;;;46.3;;
41229;SDS011;26964;50.428;19.218;2024-01-06T00:28:15;92.5;;;45.8;;
41229;SDS011;26964;50.428;19.218;2024-01-06T00:29:15;91.7;;;45.1;;
41229;SDS011;26964;50.428;19.218;2024-01-06T00:30:15;91.3;;;44.9;;
41229;SDS011;26964;50.428;19.218;2024-01-06T00:31:15;95.9;;;45.2;;
41229;SDS011;26964;50.428;19.218;2024-01-06T00:32:15;90.8;;;46.9;;
41229;SDS011;26964;50.428;19.218;2024-01-06T00:33:15;96.8;;;47.3;;
41229;SDS011;26964;50.428;19.218;2024-01-06T00:34:16;98.8;;;50.4;;
41229;SDS011;26964;50.428;19.218;2024-01-06T00:35:15;107.9;;;54.2;;
41229;SDS011;26964;50.428;19.218;2024-01-06T00:36:16;100.3;;;49.5;;
41229;SDS011;26964;50.428;19.218;2024-01-06T00:37:15;103.8;;;55.5;;
41229;SDS011;26964;50.428;19.218;2024-01-06T00:38:15;117.4;;;60.2;;
41229;SDS011;26964;50.428;19.218;2024-01-06T00:39:15;117.1;;;59.0;;
41229;SDS011;26964;50.428;19.218;2024-01-06T00:40:16;114.5;;;62.6;;
41229;SDS011;26964;50.428;19.218;2024-01-06T00:41:15;106.3;;;60.9;;
41229;SDS011;26964;50.428;19.218;2024-01-06T00:42:15;119.9;;;63.2;;
41229;SDS011;26964;50.428;19.218;2024-01-06T00:43:15;103.7;;;57.1;;
41229;SDS011;26964;50.428;19.218;2024-01-06T00:44:15;98.1;;;53.9;;
41229;SDS011;26964;50.428;19.218;2024-01-06T00:45:15;97.9;;;54.1;;
41229;SDS011;26964;50.428;19.218;2024-01-06T00:46:15;101.4;;;52.2;;
41229;SDS011;26964;50.428;19.218;2024-01-06T00:47:15;108.0;;;51.8;;
41229;SDS011;26964;50.428;19.218;2024-01-06T00:48:15;92.7;;;50.0;;
41229;SDS011;26964;50.428;19.218;2024-01-06T00:49:15;102.3;;;52.6;;
41229;SDS011;26964;50.428;19.218;2024-01-06T00:50:15;101.9;;;55.0;;
41229;SDS011;26964;50.428;19.218;2024-01-06T00:51:15;102.1;;;49.9;;
41229;SDS011;26964;50.428;19.218;2024-01-06T00:52:15;106.6;;;47.1;;
41229;SDS011;26964;50.428;19.218;2024-01-06T00:53:14;104.1;;;50.8;;
41229;SDS011;26964;50.428;19.218;2024-01-06T00:54:15;95.5;;;48.0;;
41229;SDS011;26964;50.428;19.218;2024-01-06T00:55:15;92.1;;;47.7;;
41229;SDS011;26964;50.428;19.218;2024-01-06T00:56:15;90.8;;;46.4;;
41229;SDS011;26964;50.428;19.218;2024-01-06T00:57:15;84.9;;;45.9;;
41229;SDS011;26964;50.428;19.218;2024-01-06T00:58:15;90.8;;;49.3;;
41229;SDS011;26964;50.428;19.218;2024-01-06T00:59:14;84.8;;;47.1;;
41229;SDS011;26964;50.428;19.218;2024-01-06T01:00:15;80.7;;;46.1;;
41229;SDS011;26964;50.428;19.218;2024-01-06T01:01:15;81.1;;;46.0;;
41229;SDS011;26964;50.428;19.218;2024-01-06T01:02:15;88.6;;;49.3;;
41229;SDS011;26964;50.428;19.218;2024-01-06T01:03:15;92.0;;;50.7;;
41229;SDS011;26964;50.428;19.218;2024-01-06T01:04:16;82.5;;;47.7;;
41229;SDS011;26964;50.428;19.218;2024-01-06T01:05:15;101.6;;;55.2;;
41229;SDS011;26964;50.428;19.218;2024-01-06T01:06:15;101.7;;;56.5;;
41229;SDS011;26964;50.428;19.218;2024-01-06T01:07:15;104.6;;;55.6;;
41229;SDS011;26964;50.428;19.218;2024-01-06T01:08:15;105.8;;;55.9;;
41229;SDS011;26964;50.428;19.218;2024-01-06T01:09:15;112.4;;;63.9;;
41229;SDS011;26964;50.428;19.218;2024-01-06T01:10:15;108.4;;;59.1;;
41229;SDS011;26964;50.428;19.218;2024-01-06T01:11:15;106.3;;;59.4;;
41229;SDS011;26964;50.428;19.218;2024-01-06T01:12:15;102.1;;;59.0;;
41229;SDS011;26964;50.428;19.218;2024-01-06T01:13:16;107.7;;;58.0;;
41229;SDS011;26964;50.428;19.218;2024-01-06T01:14:15;111.0;;;61.1;;
41229;SDS011;26964;50.428;19.218;2024-01-06T01:15:15;105.6;;;56.5;;
41229;SDS011;26964;50.428;19.218;2024-01-06T01:16:15;99.0;;;54.2;;
41229;SDS011;26964;50.428;19.218;2024-01-06T01:17:15;103.3;;;53.6;;
41229;SDS011;26964;50.428;19.218;2024-01-06T01:18:15;102.0;;;53.5;;
41229;SDS011;26964;50.428;19.218;2024-01-06T01:19:15;101.1;;;55.4;;
41229;SDS011;26964;50.428;19.218;2024-01-06T01:20:16;106.1;;;55.3;;
41229;SDS011;26964;50.428;19.218;2024-01-06T01:21:14;100.8;;;53.7;;
41229;SDS011;26964;50.428;19.218;2024-01-06T01:22:15;98.9;;;54.4;;
41229;SDS011;26964;50.428;19.218;2024-01-06T01:23:14;93.7;;;51.3;;
41229;SDS011;26964;50.428;19.218;2024-01-06T01:24:15;91.8;;;49.1;;
41229;SDS011;26964;50.428;19.218;2024-01-06T01:25:15;90.9;;;50.6;;
41229;SDS011;26964;50.428;19.218;2024-01-06T01:26:14;91.8;;;50.1;;
41229;SDS011;26964;50.428;19.218;2024-01-06T01:27:14;94.2;;;49.2;;
41229;SDS011;26964;50.428;19.218;2024-01-06T01:28:14;92.0;;;51.5;;
41229;SDS011;26964;50.428;19.218;2024-01-06T01:29:14;88.9;;;52.5;;
41229;SDS011;26964;50.428;19.218;2024-01-06T01:30:14;93.1;;;50.7;;
41229;SDS011;26964;50.428;19.218;2024-01-06T01:31:14;95.3;;;52.6;;
41229;SDS011;26964;50.428;19.218;2024-01-06T01:32:14;94.9;;;54.9;;
41229;SDS011;26964;50.428;19.218;2024-01-06T01:33:15;99.3;;;55.6;;
41229;SDS011;26964;50.428;19.218;2024-01-06T01:34:15;119.1;;;65.6;;
41229;SDS011;26964;50.428;19.218;2024-01-06T01:35:14;103.9;;;60.0;;
41229;SDS011;26964;50.428;19.218;2024-01-06T01:36:14;99.8;;;57.3;;
41229;SDS011;26964;50.428;19.218;2024-01-06T01:37:15;91.0;;;52.3;;
41229;SDS011;26964;50.428;19.218;2024-01-06T01:38:15;87.2;;;50.5;;
41229;SDS011;26964;50.428;19.218;2024-01-06T01:39:15;90.7;;;51.2;;
41229;SDS011;26964;50.428;19.218;2024-01-06T01:40:14;87.2;;;49.5;;
41229;SDS011;26964;50.428;19.218;2024-01-06T01:41:14;88.2;;;48.9;;
41229;SDS011;26964;50.428;19.218;2024-01-06T01:42:14;90.1;;;50.1;;
41229;SDS011;26964;50.428;19.218;2024-01-06T01:43:16;84.7;;;50.8;;
41229;SDS011;26964;50.428;19.218;2024-01-06T01:44:15;84.7;;;48.3;;
41229;SDS011;26964;50.428;19.218;2024-01-06T01:45:14;82.0;;;46.8;;
41229;SDS011;26964;50.428;19.218;2024-01-06T01:46:15;74.9;;;44.7;;
41229;SDS011;26964;50.428;19.218;2024-01-06T01:47:15;80.5;;;45.5;;
41229;SDS011;26964;50.428;19.218;2024-01-06T01:48:14;71.9;;;44.2;;
41229;SDS011;26964;50.428;19.218;2024-01-06T01:49:14;71.7;;;43.5;;
41229;SDS011;26964;50.428;19.218;2024-01-06T01:50:15;74.8;;;44.7;;
41229;SDS011;26964;50.428;19.218;2024-01-06T01:51:14;74.7;;;43.5;;
41229;SDS011;26964;50.428;19.218;2024-01-06T01:52:15;67.5;;;41.9;;
41229;SDS011;26964;50.428;19.218;2024-01-06T01:53:15;71.9;;;41.4;;
41229;SDS011;26964;50.428;19.218;2024-01-06T01:54:14;67.3;;;40.5;;
41229;SDS011;26964;50.428;19.218;2024-01-06T01:55:14;68.4;;;41.0;;
41229;SDS011;26964;50.428;19.218;2024-01-06T01:56:15;70.1;;;42.9;;
41229;SDS011;26964;50.428;19.218;2024-01-06T01:57:15;72.2;;;44.1;;
41229;SDS011;26964;50.428;19.218;2024-01-06T01:58:15;72.6;;;43.0;;
41229;SDS011;26964;50.428;19.218;2024-01-06T01:59:14;75.8;;;44.4;;
41229;SDS011;26964;50.428;19.218;2024-01-06T02:00:15;89.0;;;51.0;;
41229;SDS011;26964;50.428;19.218;2024-01-06T02:01:14;94.3;;;54.9;;
41229;SDS011;26964;50.428;19.218;2024-01-06T02:02:14;89.8;;;51.6;;
41229;SDS011;26964;50.428;19.218;2024-01-06T02:03:15;81.1;;;47.3;;
41229;SDS011;26964;50.428;19.218;2024-01-06T02:04:14;74.6;;;45.9;;
41229;SDS011;26964;50.428;19.218;2024-01-06T02:05:14;73.8;;;45.2;;
41229;SDS011;26964;50.428;19.218;2024-01-06T02:06:14;78.7;;;47.3;;
41229;SDS011;26964;50.428;19.218;2024-01-06T02:07:14;78.2;;;47.3;;
41229;SDS011;26964;50.428;19.218;2024-01-06T02:08:14;78.7;;;47.3;;
41229;SDS011;26964;50.428;19.218;2024-01-06T02:09:15;83.1;;;49.5;;
41229;SDS011;26964;50.428;19.218;2024-01-06T02:10:14;85.7;;;49.0;;
41229;SDS011;26964;50.428;19.218;2024-01-06T02:11:15;82.7;;;48.9;;
41229;SDS011;26964;50.428;19.218;2024-01-06T02:12:15;88.0;;;51.4;;
41229;SDS011;26964;50.428;19.218;2024-01-06T02:13:15;131.6;;;73.5;;
41229;SDS011;26964;50.428;19.218;2024-01-06T02:14:14;102.4;;;57.8;;
41229;SDS011;26964;50.428;19.218;2024-01-06T02:15:14;99.8;;;57.6;;
41229;SDS011;26964;50.428;19.218;2024-01-06T02:16:15;88.6;;;52.1;;
41229;SDS011;26964;50.428;19.218;2024-01-06T02:17:15;115.0;;;66.7;;
41229;SDS011;26964;50.428;19.218;2024-01-06T02:18:15;111.4;;;63.8;;
41229;SDS011;26964;50.428;19.218;2024-01-06T02:19:15;112.9;;;65.3;;
41229;SDS011;26964;50.428;19.218;2024-01-06T02:20:14;100.0;;;59.2;;
41229;SDS011;26964;50.428;19.218;2024-01-06T02:21:14;89.3;;;51.2;;
41229;SDS011;26964;50.428;19.218;2024-01-06T02:22:15;85.8;;;50.2;;
41229;SDS011;26964;50.428;19.218;2024-01-06T02:23:15;77.6;;;47.8;;
41229;SDS011;26964;50.428;19.218;2024-01-06T02:24:14;76.6;;;48.2;;
41229;SDS011;26964;50.428;19.218;2024-01-06T02:25:14;81.6;;;48.6;;
41229;SDS011;26964;50.428;19.218;2024-01-06T02:26:15;86.5;;;49.3;;
41229;SDS011;26964;50.428;19.218;2024-01-06T02:27:14;77.8;;;46.9;;
41229;SDS011;26964;50.428;19.218;2024-01-06T02:28:14;81.5;;;49.2;;
41229;SDS011;26964;50.428;19.218;2024-01-06T02:29:14;80.2;;;46.5;;
41229;SDS011;26964;50.428;19.218;2024-01-06T02:30:16;70.4;;;43.9;;
41229;SDS011;26964;50.428;19.218;2024-01-06T02:31:14;78.1;;;45.8;;
41229;SDS011;26964;50.428;19.218;2024-01-06T02:32:14;76.8;;;45.7;;
41229;SDS011;26964;50.428;19.218;2024-01-06T02:33:15;73.6;;;45.1;;
41229;SDS011;26964;50.428;19.218;2024-01-06T02:34:14;73.9;;;43.6;;
41229;SDS011;26964;50.428;19.218;2024-01-06T02:35:14;72.6;;;44.3;;
41229;SDS011;26964;50.428;19.218;2024-01-06T02:36:14;76.5;;;47.1;;
41229;SDS011;26964;50.428;19.218;2024-01-06T02:37:14;75.7;;;44.4;;
41229;SDS011;26964;50.428;19.218;2024-01-06T02:38:15;77.2;;;45.0;;
41229;SDS011;26964;50.428;19.218;2024-01-06T02:39:14;74.0;;;44.0;;
41229;SDS011;26964;50.428;19.218;2024-01-06T02:40:14;72.3;;;42.6;;
41229;SDS011;26964;50.428;19.218;2024-01-06T02:41:14;72.4;;;43.3;;
41229;SDS011;26964;50.428;19.218;2024-01-06T02:42:15;72.0;;;42.9;;
41229;SDS011;26964;50.428;19.218;2024-01-06T02:43:14;75.2;;;45.0;;
41229;SDS011;26964;50.428;19.218;2024-01-06T02:44:15;71.6;;;43.1;;
41229;SDS011;26964;50.428;19.218;2024-01-06T02:45:14;71.9;;;43.4;;
41229;SDS011;26964;50.428;19.218;2024-01-06T02:46:14;67.5;;;41.8;;
41229;SDS011;26964;50.428;19.218;2024-01-06T02:47:14;74.1;;;42.1;;
41229;SDS011;26964;50.428;19.218;2024-01-06T02:48:15;72.3;;;44.3;;
41229;SDS011;26964;50.428;19.218;2024-01-06T02:49:14;72.9;;;44.3;;
41229;SDS011;26964;50.428;19.218;2024-01-06T02:50:14;82.0;;;49.3;;
41229;SDS011;26964;50.428;19.218;2024-01-06T02:51:14;84.8;;;47.6;;
41229;SDS011;26964;50.428;19.218;2024-01-06T02:52:14;74.1;;;45.7;;
41229;SDS011;26964;50.428;19.218;2024-01-06T02:53:14;80.3;;;48.2;;
41229;SDS011;26964;50.428;19.218;2024-01-06T02:54:14;79.3;;;50.3;;
41229;SDS011;26964;50.428;19.218;2024-01-06T02:55:14;81.0;;;50.5;;
41229;SDS011;26964;50.428;19.218;2024-01-06T02:56:14;84.1;;;50.1;;
41229;SDS011;26964;50.428;19.218;2024-01-06T02:57:14;85.3;;;50.9;;
41229;SDS011;26964;50.428;19.218;2024-01-06T02:58:25;87.1;;;52.3;;
41229;SDS011;26964;50.428;19.218;2024-01-06T02:59:14;82.4;;;51.6;;
41229;SDS011;26964;50.428;19.218;2024-01-06T03:00:15;86.0;;;52.6;;
41229;SDS011;26964;50.428;19.218;2024-01-06T03:01:14;91.2;;;55.5;;
41229;SDS011;26964;50.428;19.218;2024-01-06T03:02:14;90.3;;;53.2;;
41229;SDS011;26964;50.428;19.218;2024-01-06T03:03:14;91.9;;;56.6;;
41229;SDS011;26964;50.428;19.218;2024-01-06T03:04:14;93.4;;;55.4;;
41229;SDS011;26964;50.428;19.218;2024-01-06T03:05:14;86.7;;;53.1;;
41229;SDS011;26964;50.428;19.218;2024-01-06T03:06:14;85.2;;;53.6;;
41229;SDS011;26964;50.428;19.218;2024-01-06T03:07:14;81.5;;;51.0;;
41229;SDS011;26964;50.428;19.218;2024-01-06T03:08:14;84.8;;;50.0;;
41229;SDS011;26964;50.428;19.218;2024-01-06T03:09:14;81.8;;;48.9;;
41229;SDS011;26964;50.428;19.218;2024-01-06T03:10:14;79.3;;;47.9;;
41229;SDS011;26964;50.428;19.218;2024-01-06T03:11:14;79.3;;;47.9;;
41229;SDS011;26964;50.428;19.218;2024-01-06T03:12:14;79.0;;;47.2;;
41229;SDS011;26964;50.428;19.218;2024-01-06T03:13:15;81.7;;;49.1;;
41229;SDS011;26964;50.428;19.218;2024-01-06T03:14:15;79.0;;;47.6;;
41229;SDS011;26964;50.428;19.218;2024-01-06T03:15:14;82.4;;;48.4;;
41229;SDS011;26964;50.428;19.218;2024-01-06T03:16:14;81.7;;;47.6;;
41229;SDS011;26964;50.428;19.218;2024-01-06T03:17:14;74.6;;;46.8;;
41229;SDS011;26964;50.428;19.218;2024-01-06T03:18:14;76.9;;;46.6;;
41229;SDS011;26964;50.428;19.218;2024-01-06T03:19:14;77.4;;;47.5;;
41229;SDS011;26964;50.428;19.218;2024-01-06T03:20:14;83.3;;;50.0;;
41229;SDS011;26964;50.428;19.218;2024-01-06T03:22:14;79.0;;;49.7;;
41229;SDS011;26964;50.428;19.218;2024-01-06T03:23:14;80.3;;;49.5;;
41229;SDS011;26964;50.428;19.218;2024-01-06T03:24:14;72.8;;;45.6;;
41229;SDS011;26964;50.428;19.218;2024-01-06T03:25:14;70.3;;;42.8;;
41229;SDS011;26964;50.428;19.218;2024-01-06T03:26:14;68.2;;;42.0;;
41229;SDS011;26964;50.428;19.218;2024-01-06T03:27:14;62.5;;;39.6;;
41229;SDS011;26964;50.428;19.218;2024-01-06T03:28:14;68.6;;;40.3;;
41229;SDS011;26964;50.428;19.218;2024-01-06T03:29:14;60.5;;;37.3;;
41229;SDS011;26964;50.428;19.218;2024-01-06T03:30:14;66.4;;;40.1;;
41229;SDS011;26964;50.428;19.218;2024-01-06T03:31:14;75.9;;;45.0;;
41229;SDS011;26964;50.428;19.218;2024-01-06T03:32:14;70.0;;;41.9;;
41229;SDS011;26964;50.428;19.218;2024-01-06T03:33:14;70.6;;;42.1;;
41229;SDS011;26964;50.428;19.218;2024-01-06T03:34:14;70.8;;;42.5;;
41229;SDS011;26964;50.428;19.218;2024-01-06T03:35:14;67.4;;;41.6;;
41229;SDS011;26964;50.428;19.218;2024-01-06T03:36:14;64.8;;;38.7;;
41229;SDS011;26964;50.428;19.218;2024-01-06T03:37:14;71.5;;;42.7;;
41229;SDS011;26964;50.428;19.218;2024-01-06T03:38:14;69.1;;;42.6;;
41229;SDS011;26964;50.428;19.218;2024-01-06T03:39:14;71.0;;;42.1;;
41229;SDS011;26964;50.428;19.218;2024-01-06T03:40:14;64.8;;;41.2;;
41229;SDS011;26964;50.428;19.218;2024-01-06T03:41:14;67.9;;;40.5;;
41229;SDS011;26964;50.428;19.218;2024-01-06T03:42:14;73.2;;;42.0;;
41229;SDS011;26964;50.428;19.218;2024-01-06T03:43:14;70.6;;;40.6;;
41229;SDS011;26964;50.428;19.218;2024-01-06T03:44:14;64.2;;;39.1;;
41229;SDS011;26964;50.428;19.218;2024-01-06T03:45:14;63.7;;;39.3;;
41229;SDS011;26964;50.428;19.218;2024-01-06T03:46:14;61.1;;;37.1;;
41229;SDS011;26964;50.428;19.218;2024-01-06T03:47:14;62.7;;;39.2;;
41229;SDS011;26964;50.428;19.218;2024-01-06T03:48:14;62.7;;;40.1;;
41229;SDS011;26964;50.428;19.218;2024-01-06T03:49:14;62.0;;;38.9;;
41229;SDS011;26964;50.428;19.218;2024-01-06T03:50:14;65.4;;;41.1;;
41229;SDS011;26964;50.428;19.218;2024-01-06T03:51:14;66.5;;;40.9;;
41229;SDS011;26964;50.428;19.218;2024-01-06T03:52:14;84.1;;;49.7;;
41229;SDS011;26964;50.428;19.218;2024-01-06T03:53:14;74.6;;;47.3;;
41229;SDS011;26964;50.428;19.218;2024-01-06T03:54:14;91.5;;;56.8;;
41229;SDS011;26964;50.428;19.218;2024-01-06T03:55:14;90.0;;;53.2;;
41229;SDS011;26964;50.428;19.218;2024-01-06T03:56:14;83.5;;;51.6;;
41229;SDS011;26964;50.428;19.218;2024-01-06T03:57:14;77.7;;;49.0;;
41229;SDS011;26964;50.428;19.218;2024-01-06T03:58:14;76.4;;;46.3;;
41229;SDS011;26964;50.428;19.218;2024-01-06T03:59:14;82.5;;;45.9;;
41229;SDS011;26964;50.428;19.218;2024-01-06T04:00:15;80.6;;;44.7;;
41229;SDS011;26964;50.428;19.218;2024-01-06T04:01:14;78.7;;;46.3;;
41229;SDS011;26964;50.428;19.218;2024-01-06T04:02:14;78.6;;;46.0;;
41229;SDS011;26964;50.428;19.218;2024-01-06T04:03:14;71.7;;;44.0;;
41229;SDS011;26964;50.428;19.218;2024-01-06T04:04:14;77.1;;;44.9;;
41229;SDS011;26964;50.428;19.218;2024-01-06T04:05:14;74.4;;;45.8;;
41229;SDS011;26964;50.428;19.218;2024-01-06T04:06:14;77.9;;;47.2;;
41229;SDS011;26964;50.428;19.218;2024-01-06T04:07:14;79.3;;;47.2;;
41229;SDS011;26964;50.428;19.218;2024-01-06T04:08:14;71.6;;;45.7;;
41229;SDS011;26964;50.428;19.218;2024-01-06T04:09:14;78.1;;;48.4;;
41229;SDS011;26964;50.428;19.218;2024-01-06T04:10:14;78.0;;;47.7;;
41229;SDS011;26964;50.428;19.218;2024-01-06T04:11:14;79.9;;;46.8;;
41229;SDS011;26964;50.428;19.218;2024-01-06T04:12:14;78.3;;;48.9;;
41229;SDS011;26964;50.428;19.218;2024-01-06T04:13:14;75.1;;;44.8;;
41229;SDS011;26964;50.428;19.218;2024-01-06T04:14:14;79.5;;;45.3;;
41229;SDS011;26964;50.428;19.218;2024-01-06T04:15:14;76.7;;;46.4;;
41229;SDS011;26964;50.428;19.218;2024-01-06T04:16:14;74.8;;;45.9;;
41229;SDS011;26964;50.428;19.218;2024-01-06T04:17:14;82.9;;;46.7;;
41229;SDS011;26964;50.428;19.218;2024-01-06T04:18:14;74.2;;;44.9;;
41229;SDS011;26964;50.428;19.218;2024-01-06T04:19:14;72.8;;;43.4;;
41229;SDS011;26964;50.428;19.218;2024-01-06T04:20:14;71.4;;;43.3;;
41229;SDS011;26964;50.428;19.218;2024-01-06T04:21:14;74.5;;;44.6;;
41229;SDS011;26964;50.428;19.218;2024-01-06T04:22:14;73.5;;;45.2;;
41229;SDS011;26964;50.428;19.218;2024-01-06T04:23:14;72.9;;;45.2;;
41229;SDS011;26964;50.428;19.218;2024-01-06T04:24:14;69.7;;;43.4;;
41229;SDS011;26964;50.428;19.218;2024-01-06T04:25:14;74.6;;;43.5;;
41229;SDS011;26964;50.428;19.218;2024-01-06T04:26:14;73.8;;;43.6;;
41229;SDS011;26964;50.428;19.218;2024-01-06T04:27:14;70.3;;;43.7;;
41229;SDS011;26964;50.428;19.218;2024-01-06T04:28:14;70.3;;;41.7;;
41229;SDS011;26964;50.428;19.218;2024-01-06T04:29:14;71.7;;;42.1;;
41229;SDS011;26964;50.428;19.218;2024-01-06T04:30:14;75.4;;;43.6;;
41229;SDS011;26964;50.428;19.218;2024-01-06T04:31:14;69.8;;;41.3;;
41229;SDS011;26964;50.428;19.218;2024-01-06T04:32:14;66.6;;;41.4;;
41229;SDS011;26964;50.428;19.218;2024-01-06T04:33:14;71.2;;;41.3;;
41229;SDS011;26964;50.428;19.218;2024-01-06T04:34:14;71.0;;;42.9;;
41229;SDS011;26964;50.428;19.218;2024-01-06T04:35:14;68.8;;;41.8;;
41229;SDS011;26964;50.428;19.218;2024-01-06T04:36:14;63.8;;;39.6;;
41229;SDS011;26964;50.428;19.218;2024-01-06T04:37:14;64.0;;;39.3;;
41229;SDS011;26964;50.428;19.218;2024-01-06T04:38:14;65.4;;;40.1;;
41229;SDS011;26964;50.428;19.218;2024-01-06T04:39:14;67.1;;;40.2;;
41229;SDS011;26964;50.428;19.218;2024-01-06T04:40:14;65.2;;;40.5;;
41229;SDS011;26964;50.428;19.218;2024-01-06T04:41:14;63.7;;;40.2;;
41229;SDS011;26964;50.428;19.218;2024-01-06T04:42:14;70.1;;;43.5;;
41229;SDS011;26964;50.428;19.218;2024-01-06T04:43:14;69.3;;;43.2;;
41229;SDS011;26964;50.428;19.218;2024-01-06T04:44:14;79.4;;;48.0;;
41229;SDS011;26964;50.428;19.218;2024-01-06T04:45:14;77.3;;;46.1;;
41229;SDS011;26964;50.428;19.218;2024-01-06T04:46:14;83.2;;;47.3;;
41229;SDS011;26964;50.428;19.218;2024-01-06T04:47:14;76.7;;;46.7;;
41229;SDS011;26964;50.428;19.218;2024-01-06T04:48:14;84.6;;;48.0;;
41229;SDS011;26964;50.428;19.218;2024-01-06T04:49:14;73.9;;;44.2;;
41229;SDS011;26964;50.428;19.218;2024-01-06T04:50:14;70.8;;;43.8;;
41229;SDS011;26964;50.428;19.218;2024-01-06T04:51:14;71.2;;;43.0;;
41229;SDS011;26964;50.428;19.218;2024-01-06T04:52:14;71.7;;;42.7;;
41229;SDS011;26964;50.428;19.218;2024-01-06T04:53:14;73.9;;;42.4;;
41229;SDS011;26964;50.428;19.218;2024-01-06T04:54:14;71.5;;;43.2;;
41229;SDS011;26964;50.428;19.218;2024-01-06T04:55:14;75.2;;;42.2;;
41229;SDS011;26964;50.428;19.218;2024-01-06T04:56:14;75.3;;;43.0;;
41229;SDS011;26964;50.428;19.218;2024-01-06T04:57:14;75.7;;;44.7;;
41229;SDS011;26964;50.428;19.218;2024-01-06T04:58:14;71.4;;;42.9;;
41229;SDS011;26964;50.428;19.218;2024-01-06T04:59:14;74.1;;;44.8;;
41229;SDS011;26964;50.428;19.218;2024-01-06T05:00:14;72.2;;;43.0;;
41229;SDS011;26964;50.428;19.218;2024-01-06T05:01:14;73.1;;;42.7;;
41229;SDS011;26964;50.428;19.218;2024-01-06T05:02:14;79.7;;;43.6;;
41229;SDS011;26964;50.428;19.218;2024-01-06T05:03:14;70.1;;;43.0;;
41229;SDS011;26964;50.428;19.218;2024-01-06T05:04:14;71.9;;;43.6;;
41229;SDS011;26964;50.428;19.218;2024-01-06T05:05:14;71.5;;;40.3;;
41229;SDS011;26964;50.428;19.218;2024-01-06T05:06:14;71.3;;;43.3;;
41229;SDS011;26964;50.428;19.218;2024-01-06T05:07:14;69.6;;;42.5;;
41229;SDS011;26964;50.428;19.218;2024-01-06T05:08:14;69.7;;;41.1;;
41229;SDS011;26964;50.428;19.218;2024-01-06T05:09:14;73.3;;;44.7;;
41229;SDS011;26964;50.428;19.218;2024-01-06T05:10:14;72.9;;;43.3;;
41229;SDS011;26964;50.428;19.218;2024-01-06T05:11:14;73.9;;;44.1;;
41229;SDS011;26964;50.428;19.218;2024-01-06T05:12:14;69.0;;;41.2;;
41229;SDS011;26964;50.428;19.218;2024-01-06T05:13:14;73.5;;;44.4;;
41229;SDS011;26964;50.428;19.218;2024-01-06T05:14:14;78.0;;;45.7;;
41229;SDS011;26964;50.428;19.218;2024-01-06T05:15:14;84.3;;;47.9;;
41229;SDS011;26964;50.428;19.218;2024-01-06T05:16:15;96.5;;;51.8;;
41229;SDS011;26964;50.428;19.218;2024-01-06T05:17:15;100.6;;;56.7;;
41229;SDS011;26964;50.428;19.218;2024-01-06T05:18:15;112.3;;;60.5;;
41229;SDS011;26964;50.428;19.218;2024-01-06T05:19:15;109.3;;;60.6;;
41229;SDS011;26964;50.428;19.218;2024-01-06T05:20:15;111.6;;;59.8;;
41229;SDS011;26964;50.428;19.218;2024-01-06T05:21:15;106.1;;;60.3;;
41229;SDS011;26964;50.428;19.218;2024-01-06T05:22:14;107.5;;;62.6;;
41229;SDS011;26964;50.428;19.218;2024-01-06T05:23:14;99.8;;;58.9;;
41229;SDS011;26964;50.428;19.218;2024-01-06T05:24:14;91.7;;;55.5;;
41229;SDS011;26964;50.428;19.218;2024-01-06T05:25:14;90.1;;;52.8;;
41229;SDS011;26964;50.428;19.218;2024-01-06T05:26:14;92.3;;;53.2;;
41229;SDS011;26964;50.428;19.218;2024-01-06T05:27:14;90.9;;;53.5;;
41229;SDS011;26964;50.428;19.218;2024-01-06T05:28:14;85.3;;;51.7;;
41229;SDS011;26964;50.428;19.218;2024-01-06T05:29:14;83.4;;;52.0;;
41229;SDS011;26964;50.428;19.218;2024-01-06T05:30:14;85.0;;;51.6;;
41229;SDS011;26964;50.428;19.218;2024-01-06T05:31:14;77.1;;;49.0;;
41229;SDS011;26964;50.428;19.218;2024-01-06T05:32:15;78.5;;;49.5;;
41229;SDS011;26964;50.428;19.218;2024-01-06T05:33:15;77.8;;;49.5;;
41229;SDS011;26964;50.428;19.218;2024-01-06T05:34:14;76.8;;;47.2;;
41229;SDS011;26964;50.428;19.218;2024-01-06T05:35:15;76.8;;;46.3;;
41229;SDS011;26964;50.428;19.218;2024-01-06T05:36:18;84.5;;;48.9;;
41229;SDS011;26964;50.428;19.218;2024-01-06T05:37:14;75.1;;;46.6;;
41229;SDS011;26964;50.428;19.218;2024-01-06T05:38:14;79.7;;;48.2;;
41229;SDS011;26964;50.428;19.218;2024-01-06T05:39:14;86.0;;;51.0;;
41229;SDS011;26964;50.428;19.218;2024-01-06T05:40:14;86.5;;;49.8;;
41229;SDS011;26964;50.428;19.218;2024-01-06T05:41:14;94.4;;;53.9;;
41229;SDS011;26964;50.428;19.218;2024-01-06T05:42:15;91.6;;;52.6;;
41229;SDS011;26964;50.428;19.218;2024-01-06T05:43:14;102.0;;;59.4;;
41229;SDS011;26964;50.428;19.218;2024-01-06T05:44:15;99.0;;;57.4;;
41229;SDS011;26964;50.428;19.218;2024-01-06T05:45:15;103.5;;;57.7;;
41229;SDS011;26964;50.428;19.218;2024-01-06T05:47:15;114.0;;;65.8;;
41229;SDS011;26964;50.428;19.218;2024-01-06T05:48:15;127.4;;;71.5;;
41229;SDS011;26964;50.428;19.218;2024-01-06T05:49:15;111.9;;;68.1;;
41229;SDS011;26964;50.428;19.218;2024-01-06T05:50:14;111.1;;;65.4;;
41229;SDS011;26964;50.428;19.218;2024-01-06T05:51:14;100.0;;;58.5;;
41229;SDS011;26964;50.428;19.218;2024-01-06T05:52:14;95.8;;;57.3;;
41229;SDS011;26964;50.428;19.218;2024-01-06T05:53:14;89.0;;;52.5;;
41229;SDS011;26964;50.428;19.218;2024-01-06T05:54:14;89.8;;;50.3;;
41229;SDS011;26964;50.428;19.218;2024-01-06T05:55:14;81.2;;;48.9;;
41229;SDS011;26964;50.428;19.218;2024-01-06T05:57:14;79.4;;;48.9;;